»·PEaware :: CGVZB KONP-CYLW

CGVZB :: KONP-CYLW

FLIGHT INFORMATION

Flight Status: Arrived
Operator: Unknown
More flights by this operator :: More flights under this callsign
Pilot: Alan Shafto (10569)
Aircraft: MCDONNELL-DOUGLAS DC-6/B LIFTMASTER
(DC6)
More flights by this aircraft type
Origin: KONP Newport Mun
United States
Destination: CYLW Kelowna
Canada
More flights between these airports :: More routes between these airports
Route: +HVARD T261 JSTEN
File this flight plan on PilotEdge
Remarks:
Altitude:
(Current/Filed)
11,000ft
Speed:
(Current/Filed)
269kts
Departed: 15-Jul-17 07:33 PM
Arrived: 15-Jul-17 09:44 PM
Distance/Time
Traveled:
375nm/2:11
Distance/Time
To Go:
Arrived

Flight Plot

Page will automatically refresh every two minutes.

Flight plan parsing failed; only flown route is shown


Map Options




Map Legend


Flown Route
Filed Route
Departure Airport
Arrival Airport
Navaid (VOR, NDB)
Fix

Horizontal Profiles

Position Reports

Time Latitude Longitude Heading Altitude Ground
Speed
15-Jul-17 18:51 44.576081 -124.063482 171 116ft 0kts
15-Jul-17 18:52 44.576081 -124.063482 171 116ft 0kts
15-Jul-17 18:53 44.576081 -124.063482 171 116ft 0kts
15-Jul-17 18:54 44.576081 -124.063482 171 116ft 0kts
15-Jul-17 18:55 44.576081 -124.063482 171 116ft 0kts
15-Jul-17 18:56 44.576081 -124.063482 171 116ft 0kts
15-Jul-17 18:57 44.576081 -124.063482 171 116ft 0kts
15-Jul-17 18:58 44.576081 -124.063482 171 116ft 0kts
15-Jul-17 18:59 44.576081 -124.063482 171 116ft 0kts
15-Jul-17 19:00 44.576081 -124.063482 171 116ft 0kts
15-Jul-17 19:01 44.576081 -124.063482 171 116ft 0kts
15-Jul-17 19:02 44.576081 -124.063482 171 116ft 0kts
15-Jul-17 19:03 44.576081 -124.063482 171 116ft 0kts
15-Jul-17 19:04 44.576081 -124.063482 171 116ft 0kts
15-Jul-17 19:05 44.576081 -124.063482 171 116ft 0kts
15-Jul-17 19:06 44.576081 -124.063482 171 116ft 0kts
15-Jul-17 19:07 44.576081 -124.063482 171 116ft 0kts
15-Jul-17 19:08 44.576081 -124.063482 171 116ft 0kts
15-Jul-17 19:09 44.576081 -124.063482 171 116ft 0kts
15-Jul-17 19:10 44.576081 -124.063482 171 116ft 0kts
15-Jul-17 19:11 44.576081 -124.063482 171 116ft 0kts
15-Jul-17 19:12 44.576081 -124.063482 171 116ft 0kts
15-Jul-17 19:13 44.576087 -124.063792 312 112ft 0kts
15-Jul-17 19:14 44.576087 -124.063792 312 112ft 0kts
15-Jul-17 19:15 44.575924 -124.063598 160 115ft 0kts
15-Jul-17 19:16 44.575924 -124.063598 160 115ft 0kts
15-Jul-17 19:17 44.575924 -124.063598 160 115ft 0kts
15-Jul-17 19:18 44.575924 -124.063598 159 115ft 0kts
15-Jul-17 19:19 44.575924 -124.063598 159 115ft 0kts
15-Jul-17 19:20 44.575924 -124.063598 159 115ft 0kts
15-Jul-17 19:21 44.575924 -124.063598 159 115ft 0kts
15-Jul-17 19:22 44.575924 -124.063598 159 115ft 0kts
15-Jul-17 19:23 44.575863 -124.063567 159 115ft 0kts
15-Jul-17 19:24 44.575746 -124.063505 159 116ft 0kts
15-Jul-17 19:25 44.575635 -124.063447 159 117ft 0kts
15-Jul-17 19:26 44.575635 -124.063447 159 117ft 0kts
15-Jul-17 19:27 44.575635 -124.063447 159 117ft 0kts
15-Jul-17 19:28 44.575635 -124.063447 159 117ft 0kts
15-Jul-17 19:29 44.575593 -124.063425 159 117ft 2kts
15-Jul-17 19:30 44.574524 -124.062591 133 127ft 2kts
15-Jul-17 19:31 44.573833 -124.061551 133 137ft 5kts
15-Jul-17 19:32 44.572634 -124.059788 133 139ft 0kts
15-Jul-17 19:33 44.572634 -124.059788 133 139ft 0kts
15-Jul-17 19:34 44.572631 -124.059783 133 139ft 0kts
15-Jul-17 19:35 44.572475 -124.059554 133 140ft 5kts
15-Jul-17 19:36 44.574061 -124.058577 355 157ft 53kts
15-Jul-17 19:37 44.602786 -124.060045 356 749ft 113kts
15-Jul-17 19:38 44.634818 -124.071030 299 1304ft 133kts
15-Jul-17 19:39 44.610872 -124.101810 182 2085ft 150kts
15-Jul-17 19:40 44.564023 -124.099156 177 2662ft 176kts
15-Jul-17 19:41 44.516719 -124.101592 207 3562ft 169kts
15-Jul-17 19:42 44.483300 -124.142524 223 4526ft 158kts
15-Jul-17 19:43 44.454565 -124.111866 59 5031ft 184kts
15-Jul-17 19:44 44.497440 -124.082524 12 5825ft 167kts
15-Jul-17 19:45 44.543588 -124.064707 9 6535ft 173kts
15-Jul-17 19:46 44.591994 -124.050444 2 7248ft 180kts
15-Jul-17 19:47 44.642154 -124.042140 358 8045ft 182kts
15-Jul-17 19:48 44.694156 -124.039825 354 8684ft 190kts
15-Jul-17 19:49 44.747718 -124.038026 355 9367ft 194kts
15-Jul-17 19:50 44.802044 -124.034872 355 10023ft 198kts
15-Jul-17 19:51 44.857596 -124.030770 356 10657ft 201kts
15-Jul-17 19:52 44.914438 -124.026056 357 11013ft 216kts
15-Jul-17 19:53 44.977777 -124.020347 357 11007ft 237kts
15-Jul-17 19:54 45.044719 -124.013968 358 10997ft 246kts
15-Jul-17 19:55 45.113110 -124.006979 359 10985ft 254kts
15-Jul-17 19:56 45.183369 -123.998738 359 10983ft 258kts
15-Jul-17 19:57 45.255088 -123.990233 359 10983ft 262kts
15-Jul-17 19:58 45.328071 -123.981529 0 10983ft 265kts
15-Jul-17 19:59 45.401444 -123.972751 0 10983ft 266kts
15-Jul-17 20:00 45.475011 -123.963927 0 10983ft 267kts
15-Jul-17 20:01 45.548940 -123.955036 0 10984ft 267kts
15-Jul-17 20:02 45.623018 -123.946104 0 10984ft 268kts
15-Jul-17 20:03 45.696950 -123.937167 0 10984ft 268kts
15-Jul-17 20:04 45.770533 -123.928249 0 10984ft 268kts
15-Jul-17 20:05 45.844560 -123.919247 359 10981ft 268kts
15-Jul-17 20:06 45.918746 -123.910205 359 10976ft 267kts
15-Jul-17 20:07 45.991914 -123.901271 359 10976ft 267kts
15-Jul-17 20:08 46.065453 -123.892257 359 11045ft 264kts
15-Jul-17 20:09 46.135404 -123.883677 359 11060ft 265kts
15-Jul-17 20:10 46.202791 -123.894895 341 11061ft 257kts
15-Jul-17 20:11 46.272626 -123.918127 341 11060ft 257kts
15-Jul-17 20:12 46.342237 -123.941615 340 11060ft 257kts
15-Jul-17 20:13 46.408123 -123.926887 53 11067ft 276kts
15-Jul-17 20:14 46.456317 -123.842304 47 11061ft 276kts
15-Jul-17 20:15 46.507883 -123.760403 44 11054ft 276kts
15-Jul-17 20:16 46.560302 -123.679544 44 11053ft 276kts
15-Jul-17 20:17 46.612917 -123.598878 44 11054ft 276kts
15-Jul-17 20:18 46.665582 -123.518085 44 11046ft 276kts
15-Jul-17 20:19 46.718282 -123.437051 44 11037ft 276kts
15-Jul-17 20:20 46.771039 -123.355716 44 11016ft 277kts
15-Jul-17 20:21 46.820566 -123.279160 45 11000ft 277kts
15-Jul-17 20:22 46.871970 -123.199450 45 10993ft 277kts
15-Jul-17 20:23 46.924270 -123.118101 45 10993ft 276kts
15-Jul-17 20:24 46.975474 -123.038221 45 10996ft 277kts
15-Jul-17 20:25 47.027503 -122.956714 45 10998ft 277kts
15-Jul-17 20:26 47.079990 -122.874351 45 11003ft 277kts
15-Jul-17 20:27 47.131034 -122.794003 45 10996ft 277kts
15-Jul-17 20:28 47.182170 -122.713254 45 10994ft 277kts
15-Jul-17 20:29 47.233580 -122.631819 45 10993ft 277kts
15-Jul-17 20:30 47.284266 -122.551266 45 10993ft 277kts
15-Jul-17 20:31 47.333354 -122.473035 45 10993ft 277kts
15-Jul-17 20:32 47.380031 -122.398433 45 10992ft 277kts
15-Jul-17 20:33 47.429461 -122.319191 46 10981ft 277kts
15-Jul-17 20:34 47.483576 -122.264131 30 10975ft 274kts
15-Jul-17 20:35 47.546258 -122.204010 29 10973ft 273kts
15-Jul-17 20:36 47.609230 -122.143624 29 10973ft 272kts
15-Jul-17 20:37 47.672434 -122.082901 29 10974ft 271kts
15-Jul-17 20:38 47.735705 -122.021947 29 10982ft 271kts
15-Jul-17 20:39 47.798609 -121.961171 29 10993ft 271kts
15-Jul-17 20:40 47.861772 -121.899968 29 11003ft 272kts
15-Jul-17 20:41 47.925281 -121.838244 30 11003ft 273kts
15-Jul-17 20:42 47.988597 -121.776521 30 11004ft 274kts
15-Jul-17 20:43 48.041440 -121.724865 30 11004ft 274kts
15-Jul-17 20:44 48.101892 -121.665613 30 11004ft 274kts
15-Jul-17 20:45 48.162425 -121.606119 30 11002ft 274kts
15-Jul-17 20:46 48.224587 -121.544844 30 11002ft 274kts
15-Jul-17 20:47 48.288171 -121.481979 30 11003ft 274kts
15-Jul-17 20:48 48.351811 -121.418868 30 11002ft 275kts
15-Jul-17 20:49 48.415305 -121.355710 30 10987ft 275kts
15-Jul-17 20:50 48.475491 -121.295666 31 10948ft 276kts
15-Jul-17 20:51 48.538823 -121.232288 30 10911ft 276kts
15-Jul-17 20:52 48.602520 -121.168365 31 10900ft 276kts
15-Jul-17 20:53 48.665235 -121.105246 31 10900ft 276kts
15-Jul-17 20:54 48.728541 -121.041326 32 10901ft 277kts
15-Jul-17 20:55 48.792114 -120.976929 32 10902ft 279kts
15-Jul-17 20:56 48.856192 -120.911798 32 10903ft 280kts
15-Jul-17 20:57 48.906969 -120.830731 97 10888ft 269kts
15-Jul-17 20:58 48.863210 -120.754218 140 10905ft 248kts
15-Jul-17 20:59 48.818334 -120.673094 133 10878ft 254kts
15-Jul-17 21:00 48.777156 -120.586341 130 10816ft 256kts
15-Jul-17 21:01 48.736828 -120.496816 129 10751ft 256kts
15-Jul-17 21:02 48.697224 -120.407527 129 10729ft 254kts
15-Jul-17 21:03 48.659346 -120.321919 130 10727ft 252kts
15-Jul-17 21:04 48.621024 -120.235422 130 10726ft 250kts
15-Jul-17 21:05 48.582391 -120.148456 130 10727ft 249kts
15-Jul-17 21:06 48.543725 -120.061679 130 10727ft 248kts
15-Jul-17 21:07 48.505722 -119.976634 130 10726ft 246kts
15-Jul-17 21:08 48.467512 -119.891400 130 10726ft 245kts
15-Jul-17 21:09 48.429432 -119.806739 130 10726ft 243kts
15-Jul-17 21:10 48.391486 -119.722635 130 10727ft 242kts
15-Jul-17 21:11 48.353760 -119.639247 130 10725ft 239kts
15-Jul-17 21:12 48.316667 -119.557498 130 10725ft 234kts
15-Jul-17 21:13 48.322603 -119.473922 14 10721ft 257kts
15-Jul-17 21:14 48.390017 -119.488069 348 10725ft 244kts
15-Jul-17 21:15 48.457445 -119.494032 354 10448ft 249kts
15-Jul-17 21:16 48.527199 -119.486880 7 9979ft 255kts
15-Jul-17 21:17 48.597029 -119.468060 7 9554ft 256kts
15-Jul-17 21:18 48.667163 -119.449477 7 9155ft 256kts
15-Jul-17 21:19 48.736724 -119.431326 7 8775ft 255kts
15-Jul-17 21:20 48.806756 -119.418102 1 8406ft 254kts
15-Jul-17 21:21 48.876722 -119.413971 349 8046ft 251kts
15-Jul-17 21:22 48.946163 -119.423626 351 7704ft 250kts
15-Jul-17 21:23 49.012651 -119.448872 340 7353ft 249kts
15-Jul-17 21:24 49.077569 -119.486707 333 7000ft 251kts
15-Jul-17 21:25 49.137414 -119.528248 338 6803ft 234kts
15-Jul-17 21:26 49.196450 -119.544697 350 6560ft 219kts
15-Jul-17 21:27 49.255502 -119.552428 351 6225ft 211kts
15-Jul-17 21:28 49.313442 -119.560516 351 5849ft 207kts
15-Jul-17 21:29 49.369444 -119.568985 350 5724ft 194kts
15-Jul-17 21:30 49.420680 -119.576391 350 5729ft 182kts
15-Jul-17 21:31 49.469690 -119.583140 351 5728ft 174kts
15-Jul-17 21:32 49.517907 -119.589789 350 5734ft 174kts
15-Jul-17 21:33 49.566185 -119.596151 350 5730ft 172kts
15-Jul-17 21:34 49.612377 -119.610279 327 5484ft 175kts
15-Jul-17 21:35 49.652041 -119.655068 324 4969ft 174kts
15-Jul-17 21:36 49.691716 -119.697949 324 4384ft 174kts
15-Jul-17 21:37 49.732619 -119.737462 1 3698ft 176kts
15-Jul-17 21:38 49.758598 -119.678998 60 3455ft 163kts
15-Jul-17 21:39 49.774726 -119.615184 68 3086ft 164kts
15-Jul-17 21:40 49.787851 -119.549438 63 2889ft 158kts
15-Jul-17 21:41 49.807919 -119.492720 37 2859ft 135kts
15-Jul-17 21:42 49.835844 -119.452025 40 2945ft 140kts
15-Jul-17 21:43 49.862990 -119.407819 30 2771ft 137kts
15-Jul-17 21:44 49.895773 -119.386364 18 2559ft 124kts
15-Jul-17 21:45 49.928080 -119.373795 345 1861ft 113kts
15-Jul-17 21:46 49.956744 -119.377904 354 1407ft 73kts
15-Jul-17 21:47 49.965900 -119.379736 299 1407ft 1kts
15-Jul-17 21:48 49.965851 -119.381429 97 1407ft 5kts
15-Jul-17 21:49 49.965914 -119.381142 68 1407ft 0kts
15-Jul-17 21:50 49.965914 -119.381142 68 1407ft 0kts

Navigation Log

Ident Type
Flight plan parsing failed, navigation log unavailable